Aviation Digital Data Service (ADDS)

Output produced by METARs form (1152 UTC 25 June 2018)
found at http://www.aviationweather.gov/adds/metars/
 
KJFK 251051Z 33009KT 10SM FEW033 SCT250 21/17 A2992 RMK AO2 SLP133 T02060167
KJFK 251121Z 2512/2618 33014G22KT P6SM SCT250 
     FM252200 35011G18KT P6SM SKC 
     FM260200 02007KT P6SM SKC 
     FM261300 12006KT P6SM SKC 
     FM261600 16010KT P6SM FEW250
       
EGLL 251120Z AUTO VRB03KT 9999 NCD 27/09 Q1026
TAF EGLL 251053Z 2512/2618 35005KT CAVOK 
     BECMG 2518/2521 05010KT
       
KBNA 251053Z 17003KT 10SM BKN250 23/21 A3001 RMK A02 SLP154 T022830211
KBNA 251124Z 2512/2612 19006KT P6SM SCT035 
     FM251400 25012KT P6SM BKN045 
     FM252000 24008KT P6SM VCTS BKN050CB 
     FM260100 18003KT P6SM BKN250